sensor_id;sensor_type;location;lat;lon;timestamp;P1;durP1;ratioP1;P2;durP2;ratioP2
62861;SDS011;48953;53.110;5.592;2022-10-30T00:00:35;24.85;;;11.45;;
62861;SDS011;48953;53.110;5.592;2022-10-30T00:03:01;27.88;;;12.68;;
62861;SDS011;48953;53.110;5.592;2022-10-30T00:05:27;21.15;;;12.77;;
62861;SDS011;48953;53.110;5.592;2022-10-30T00:07:56;52.40;;;22.88;;
62861;SDS011;48953;53.110;5.592;2022-10-30T00:10:22;111.72;;;57.50;;
62861;SDS011;48953;53.110;5.592;2022-10-30T00:12:48;178.60;;;76.93;;
62861;SDS011;48953;53.110;5.592;2022-10-30T00:15:13;154.90;;;54.28;;
62861;SDS011;48953;53.110;5.592;2022-10-30T00:17:39;93.40;;;33.80;;
62861;SDS011;48953;53.110;5.592;2022-10-30T00:20:05;45.45;;;19.73;;
62861;SDS011;48953;53.110;5.592;2022-10-30T00:22:32;27.55;;;13.20;;
62861;SDS011;48953;53.110;5.592;2022-10-30T00:24:59;26.20;;;12.05;;
62861;SDS011;48953;53.110;5.592;2022-10-30T00:27:25;24.33;;;12.32;;
62861;SDS011;48953;53.110;5.592;2022-10-30T00:29:51;30.65;;;12.27;;
62861;SDS011;48953;53.110;5.592;2022-10-30T00:32:17;22.60;;;11.77;;
62861;SDS011;48953;53.110;5.592;2022-10-30T00:34:42;22.73;;;11.65;;
62861;SDS011;48953;53.110;5.592;2022-10-30T00:37:08;24.48;;;12.98;;
62861;SDS011;48953;53.110;5.592;2022-10-30T00:39:33;25.23;;;12.85;;
62861;SDS011;48953;53.110;5.592;2022-10-30T00:41:59;23.50;;;11.98;;
62861;SDS011;48953;53.110;5.592;2022-10-30T00:44:31;25.15;;;11.85;;
62861;SDS011;48953;53.110;5.592;2022-10-30T00:47:19;21.75;;;12.07;;
62861;SDS011;48953;53.110;5.592;2022-10-30T00:50:08;25.52;;;12.07;;
62861;SDS011;48953;53.110;5.592;2022-10-30T00:52:51;26.02;;;12.43;;
62861;SDS011;48953;53.110;5.592;2022-10-30T00:55:22;22.83;;;11.48;;
62861;SDS011;48953;53.110;5.592;2022-10-30T00:57:53;21.08;;;12.43;;
62861;SDS011;48953;53.110;5.592;2022-10-30T01:00:19;25.75;;;12.85;;
62861;SDS011;48953;53.110;5.592;2022-10-30T01:02:47;24.88;;;11.30;;
62861;SDS011;48953;53.110;5.592;2022-10-30T01:05:15;19.42;;;10.25;;
62861;SDS011;48953;53.110;5.592;2022-10-30T01:07:42;27.08;;;11.73;;
62861;SDS011;48953;53.110;5.592;2022-10-30T01:10:08;25.83;;;11.52;;
62861;SDS011;48953;53.110;5.592;2022-10-30T01:12:35;28.75;;;12.95;;
62861;SDS011;48953;53.110;5.592;2022-10-30T01:15:02;23.95;;;13.07;;
62861;SDS011;48953;53.110;5.592;2022-10-30T01:25:52;21.98;;;11.27;;
62861;SDS011;48953;53.110;5.592;2022-10-30T01:31:38;23.00;;;11.43;;
62861;SDS011;48953;53.110;5.592;2022-10-30T01:34:18;18.58;;;10.98;;
62861;SDS011;48953;53.110;5.592;2022-10-30T01:37:00;24.40;;;11.05;;
62861;SDS011;48953;53.110;5.592;2022-10-30T01:40:03;22.30;;;10.80;;
62861;SDS011;48953;53.110;5.592;2022-10-30T01:45:10;24.08;;;11.18;;
62861;SDS011;48953;53.110;5.592;2022-10-30T01:48:02;20.35;;;10.73;;
62861;SDS011;48953;53.110;5.592;2022-10-30T01:58:50;27.50;;;11.32;;
62861;SDS011;48953;53.110;5.592;2022-10-30T02:01:19;21.85;;;11.18;;
62861;SDS011;48953;53.110;5.592;2022-10-30T02:03:46;24.42;;;11.55;;
62861;SDS011;48953;53.110;5.592;2022-10-30T02:06:11;21.45;;;11.18;;
62861;SDS011;48953;53.110;5.592;2022-10-30T02:08:37;23.63;;;11.32;;
62861;SDS011;48953;53.110;5.592;2022-10-30T02:11:03;24.45;;;12.30;;
62861;SDS011;48953;53.110;5.592;2022-10-30T02:13:29;28.38;;;11.43;;
62861;SDS011;48953;53.110;5.592;2022-10-30T02:15:56;22.00;;;11.27;;
62861;SDS011;48953;53.110;5.592;2022-10-30T02:18:22;25.83;;;11.65;;
62861;SDS011;48953;53.110;5.592;2022-10-30T02:20:49;20.35;;;10.73;;
62861;SDS011;48953;53.110;5.592;2022-10-30T02:23:14;21.42;;;11.25;;
62861;SDS011;48953;53.110;5.592;2022-10-30T02:25:43;28.85;;;11.95;;
62861;SDS011;48953;53.110;5.592;2022-10-30T02:28:09;22.20;;;11.45;;
62861;SDS011;48953;53.110;5.592;2022-10-30T02:30:35;27.38;;;12.18;;
62861;SDS011;48953;53.110;5.592;2022-10-30T02:33:01;22.23;;;10.77;;
62861;SDS011;48953;53.110;5.592;2022-10-30T02:35:26;22.83;;;11.85;;
62861;SDS011;48953;53.110;5.592;2022-10-30T02:37:53;22.60;;;11.98;;
62861;SDS011;48953;53.110;5.592;2022-10-30T02:40:19;27.73;;;11.88;;
62861;SDS011;48953;53.110;5.592;2022-10-30T02:42:50;23.85;;;11.27;;
62861;SDS011;48953;53.110;5.592;2022-10-30T02:45:16;26.33;;;11.65;;
62861;SDS011;48953;53.110;5.592;2022-10-30T02:47:42;29.17;;;12.10;;
62861;SDS011;48953;53.110;5.592;2022-10-30T02:50:08;24.48;;;12.00;;
62861;SDS011;48953;53.110;5.592;2022-10-30T02:52:33;23.83;;;11.95;;
62861;SDS011;48953;53.110;5.592;2022-10-30T02:54:59;21.17;;;11.68;;
62861;SDS011;48953;53.110;5.592;2022-10-30T02:57:25;25.77;;;12.25;;
62861;SDS011;48953;53.110;5.592;2022-10-30T02:59:50;28.23;;;12.25;;
62861;SDS011;48953;53.110;5.592;2022-10-30T03:02:16;23.42;;;11.68;;
62861;SDS011;48953;53.110;5.592;2022-10-30T03:04:42;22.58;;;11.93;;
62861;SDS011;48953;53.110;5.592;2022-10-30T03:07:08;21.38;;;11.27;;
62861;SDS011;48953;53.110;5.592;2022-10-30T03:09:33;22.42;;;11.23;;
62861;SDS011;48953;53.110;5.592;2022-10-30T03:11:59;22.38;;;11.80;;
62861;SDS011;48953;53.110;5.592;2022-10-30T03:14:24;23.75;;;11.77;;
62861;SDS011;48953;53.110;5.592;2022-10-30T03:16:50;28.58;;;12.07;;
62861;SDS011;48953;53.110;5.592;2022-10-30T03:19:16;19.80;;;11.30;;
62861;SDS011;48953;53.110;5.592;2022-10-30T03:21:43;22.20;;;11.80;;
62861;SDS011;48953;53.110;5.592;2022-10-30T03:24:09;22.73;;;12.02;;
62861;SDS011;48953;53.110;5.592;2022-10-30T03:26:35;25.10;;;11.90;;
62861;SDS011;48953;53.110;5.592;2022-10-30T03:29:00;23.73;;;11.95;;
62861;SDS011;48953;53.110;5.592;2022-10-30T03:31:26;23.65;;;12.02;;
62861;SDS011;48953;53.110;5.592;2022-10-30T03:33:54;23.50;;;13.02;;
62861;SDS011;48953;53.110;5.592;2022-10-30T03:36:20;24.90;;;12.32;;
62861;SDS011;48953;53.110;5.592;2022-10-30T03:38:45;26.55;;;12.25;;
62861;SDS011;48953;53.110;5.592;2022-10-30T03:41:11;24.65;;;11.95;;
62861;SDS011;48953;53.110;5.592;2022-10-30T03:43:37;23.63;;;12.27;;
62861;SDS011;48953;53.110;5.592;2022-10-30T03:46:02;28.85;;;12.80;;
62861;SDS011;48953;53.110;5.592;2022-10-30T03:48:28;24.80;;;12.55;;
62861;SDS011;48953;53.110;5.592;2022-10-30T03:50:55;25.30;;;12.30;;
62861;SDS011;48953;53.110;5.592;2022-10-30T03:53:22;27.40;;;12.45;;
62861;SDS011;48953;53.110;5.592;2022-10-30T03:55:50;27.45;;;13.35;;
62861;SDS011;48953;53.110;5.592;2022-10-30T03:58:16;24.52;;;12.80;;
62861;SDS011;48953;53.110;5.592;2022-10-30T04:00:42;23.88;;;11.80;;
62861;SDS011;48953;53.110;5.592;2022-10-30T04:03:09;24.63;;;12.80;;
62861;SDS011;48953;53.110;5.592;2022-10-30T04:05:35;26.67;;;12.25;;
62861;SDS011;48953;53.110;5.592;2022-10-30T04:08:02;23.08;;;12.15;;
62861;SDS011;48953;53.110;5.592;2022-10-30T04:10:31;28.55;;;12.88;;
62861;SDS011;48953;53.110;5.592;2022-10-30T04:13:01;29.88;;;13.40;;
62861;SDS011;48953;53.110;5.592;2022-10-30T04:15:29;26.73;;;13.57;;
62861;SDS011;48953;53.110;5.592;2022-10-30T04:17:54;29.50;;;12.60;;
62861;SDS011;48953;53.110;5.592;2022-10-30T04:20:21;27.70;;;12.70;;
62861;SDS011;48953;53.110;5.592;2022-10-30T04:22:48;30.90;;;13.25;;
62861;SDS011;48953;53.110;5.592;2022-10-30T04:25:19;22.80;;;12.60;;
62861;SDS011;48953;53.110;5.592;2022-10-30T04:27:44;28.40;;;13.02;;
62861;SDS011;48953;53.110;5.592;2022-10-30T04:30:11;34.65;;;14.95;;
62861;SDS011;48953;53.110;5.592;2022-10-30T04:32:47;25.95;;;12.10;;
62861;SDS011;48953;53.110;5.592;2022-10-30T04:35:13;22.98;;;11.52;;
62861;SDS011;48953;53.110;5.592;2022-10-30T04:37:40;26.58;;;12.13;;
62861;SDS011;48953;53.110;5.592;2022-10-30T04:40:06;27.65;;;11.57;;
62861;SDS011;48953;53.110;5.592;2022-10-30T04:42:32;27.23;;;12.80;;
62861;SDS011;48953;53.110;5.592;2022-10-30T04:44:59;29.65;;;13.50;;
62861;SDS011;48953;53.110;5.592;2022-10-30T04:47:26;22.48;;;11.85;;
62861;SDS011;48953;53.110;5.592;2022-10-30T04:49:53;26.30;;;12.98;;
62861;SDS011;48953;53.110;5.592;2022-10-30T04:52:18;29.25;;;13.18;;
62861;SDS011;48953;53.110;5.592;2022-10-30T04:54:44;27.30;;;13.15;;
62861;SDS011;48953;53.110;5.592;2022-10-30T04:57:10;30.25;;;13.65;;
62861;SDS011;48953;53.110;5.592;2022-10-30T04:59:35;27.10;;;13.30;;
62861;SDS011;48953;53.110;5.592;2022-10-30T05:02:01;24.60;;;12.80;;
62861;SDS011;48953;53.110;5.592;2022-10-30T05:04:27;24.85;;;12.07;;
62861;SDS011;48953;53.110;5.592;2022-10-30T05:06:52;29.17;;;13.07;;
62861;SDS011;48953;53.110;5.592;2022-10-30T05:09:18;34.95;;;13.30;;
62861;SDS011;48953;53.110;5.592;2022-10-30T05:11:43;28.20;;;12.93;;
62861;SDS011;48953;53.110;5.592;2022-10-30T05:14:09;37.38;;;14.32;;
62861;SDS011;48953;53.110;5.592;2022-10-30T05:16:35;34.65;;;14.38;;
62861;SDS011;48953;53.110;5.592;2022-10-30T05:19:00;29.73;;;14.13;;
62861;SDS011;48953;53.110;5.592;2022-10-30T05:21:26;29.73;;;13.20;;
62861;SDS011;48953;53.110;5.592;2022-10-30T05:23:51;27.55;;;13.98;;
62861;SDS011;48953;53.110;5.592;2022-10-30T05:26:17;31.80;;;14.68;;
62861;SDS011;48953;53.110;5.592;2022-10-30T05:28:42;25.55;;;13.65;;
62861;SDS011;48953;53.110;5.592;2022-10-30T05:31:08;29.17;;;12.98;;
62861;SDS011;48953;53.110;5.592;2022-10-30T05:33:34;26.20;;;12.82;;
62861;SDS011;48953;53.110;5.592;2022-10-30T05:35:59;31.23;;;12.90;;
62861;SDS011;48953;53.110;5.592;2022-10-30T05:38:25;27.90;;;12.30;;
62861;SDS011;48953;53.110;5.592;2022-10-30T05:40:50;27.92;;;13.15;;
62861;SDS011;48953;53.110;5.592;2022-10-30T05:43:16;28.88;;;12.50;;
62861;SDS011;48953;53.110;5.592;2022-10-30T05:45:42;33.10;;;13.45;;
62861;SDS011;48953;53.110;5.592;2022-10-30T05:48:08;30.23;;;13.40;;
62861;SDS011;48953;53.110;5.592;2022-10-30T05:50:33;30.00;;;12.98;;
62861;SDS011;48953;53.110;5.592;2022-10-30T05:53:00;31.00;;;12.48;;
62861;SDS011;48953;53.110;5.592;2022-10-30T05:55:28;38.33;;;13.95;;
62861;SDS011;48953;53.110;5.592;2022-10-30T05:57:55;46.70;;;14.35;;
62861;SDS011;48953;53.110;5.592;2022-10-30T06:00:25;35.92;;;14.35;;
62861;SDS011;48953;53.110;5.592;2022-10-30T06:02:57;30.73;;;13.32;;
62861;SDS011;48953;53.110;5.592;2022-10-30T06:05:24;25.60;;;13.20;;
62861;SDS011;48953;53.110;5.592;2022-10-30T06:07:53;30.63;;;13.35;;
62861;SDS011;48953;53.110;5.592;2022-10-30T06:10:19;29.90;;;13.20;;
62861;SDS011;48953;53.110;5.592;2022-10-30T06:12:51;32.55;;;14.27;;
62861;SDS011;48953;53.110;5.592;2022-10-30T06:15:17;30.17;;;13.60;;
62861;SDS011;48953;53.110;5.592;2022-10-30T06:17:43;32.13;;;14.35;;
62861;SDS011;48953;53.110;5.592;2022-10-30T06:20:09;37.20;;;15.00;;
62861;SDS011;48953;53.110;5.592;2022-10-30T06:22:35;35.63;;;14.07;;
62861;SDS011;48953;53.110;5.592;2022-10-30T06:25:00;36.05;;;14.68;;
62861;SDS011;48953;53.110;5.592;2022-10-30T06:27:26;28.55;;;12.88;;
62861;SDS011;48953;53.110;5.592;2022-10-30T06:29:51;29.38;;;13.48;;
62861;SDS011;48953;53.110;5.592;2022-10-30T06:32:18;33.28;;;13.32;;
62861;SDS011;48953;53.110;5.592;2022-10-30T06:34:45;29.00;;;13.25;;
62861;SDS011;48953;53.110;5.592;2022-10-30T06:37:10;34.08;;;14.45;;
62861;SDS011;48953;53.110;5.592;2022-10-30T06:39:36;32.70;;;14.27;;
62861;SDS011;48953;53.110;5.592;2022-10-30T06:42:01;32.80;;;13.68;;
62861;SDS011;48953;53.110;5.592;2022-10-30T06:44:27;32.28;;;13.88;;
62861;SDS011;48953;53.110;5.592;2022-10-30T06:46:53;32.92;;;13.63;;
62861;SDS011;48953;53.110;5.592;2022-10-30T06:49:18;29.10;;;13.48;;
62861;SDS011;48953;53.110;5.592;2022-10-30T06:51:44;31.33;;;13.82;;
62861;SDS011;48953;53.110;5.592;2022-10-30T06:54:11;28.83;;;14.05;;
62861;SDS011;48953;53.110;5.592;2022-10-30T06:56:36;31.92;;;13.68;;
62861;SDS011;48953;53.110;5.592;2022-10-30T06:59:02;36.25;;;14.68;;
62861;SDS011;48953;53.110;5.592;2022-10-30T07:01:27;30.88;;;15.07;;
62861;SDS011;48953;53.110;5.592;2022-10-30T07:03:53;30.33;;;14.45;;
62861;SDS011;48953;53.110;5.592;2022-10-30T07:06:19;32.22;;;14.48;;
62861;SDS011;48953;53.110;5.592;2022-10-30T07:08:45;32.63;;;14.25;;
62861;SDS011;48953;53.110;5.592;2022-10-30T07:11:10;27.27;;;13.60;;
62861;SDS011;48953;53.110;5.592;2022-10-30T07:13:36;24.65;;;13.10;;
62861;SDS011;48953;53.110;5.592;2022-10-30T07:16:02;28.75;;;13.82;;
62861;SDS011;48953;53.110;5.592;2022-10-30T07:18:27;24.55;;;13.32;;
62861;SDS011;48953;53.110;5.592;2022-10-30T07:20:53;36.88;;;13.32;;
62861;SDS011;48953;53.110;5.592;2022-10-30T07:23:20;26.92;;;13.23;;
62861;SDS011;48953;53.110;5.592;2022-10-30T07:25:46;28.73;;;12.95;;
62861;SDS011;48953;53.110;5.592;2022-10-30T07:28:11;26.25;;;14.38;;
62861;SDS011;48953;53.110;5.592;2022-10-30T07:30:37;32.40;;;14.43;;
62861;SDS011;48953;53.110;5.592;2022-10-30T07:33:03;29.40;;;15.07;;
62861;SDS011;48953;53.110;5.592;2022-10-30T07:35:30;30.52;;;14.82;;
62861;SDS011;48953;53.110;5.592;2022-10-30T07:38:02;24.75;;;14.95;;
62861;SDS011;48953;53.110;5.592;2022-10-30T07:40:28;22.63;;;14.18;;
62861;SDS011;48953;53.110;5.592;2022-10-30T07:42:55;24.60;;;13.73;;
62861;SDS011;48953;53.110;5.592;2022-10-30T07:45:21;21.63;;;13.73;;
62861;SDS011;48953;53.110;5.592;2022-10-30T07:47:47;22.00;;;13.15;;
62861;SDS011;48953;53.110;5.592;2022-10-30T07:50:13;22.08;;;12.80;;
62861;SDS011;48953;53.110;5.592;2022-10-30T07:52:38;23.35;;;13.00;;
62861;SDS011;48953;53.110;5.592;2022-10-30T07:55:04;22.60;;;12.05;;
62861;SDS011;48953;53.110;5.592;2022-10-30T07:57:36;21.27;;;11.85;;
62861;SDS011;48953;53.110;5.592;2022-10-30T08:00:03;24.23;;;11.90;;
62861;SDS011;48953;53.110;5.592;2022-10-30T08:02:30;18.02;;;11.90;;
62861;SDS011;48953;53.110;5.592;2022-10-30T08:04:56;22.23;;;11.98;;
62861;SDS011;48953;53.110;5.592;2022-10-30T08:07:21;23.67;;;11.90;;
62861;SDS011;48953;53.110;5.592;2022-10-30T08:09:47;24.00;;;11.38;;
62861;SDS011;48953;53.110;5.592;2022-10-30T08:12:13;19.85;;;11.07;;
62861;SDS011;48953;53.110;5.592;2022-10-30T08:14:39;18.25;;;10.70;;
62861;SDS011;48953;53.110;5.592;2022-10-30T08:17:05;16.88;;;10.45;;
62861;SDS011;48953;53.110;5.592;2022-10-30T08:19:34;14.40;;;9.57;;
62861;SDS011;48953;53.110;5.592;2022-10-30T08:21:59;16.92;;;10.60;;
62861;SDS011;48953;53.110;5.592;2022-10-30T08:24:26;22.35;;;10.38;;
62861;SDS011;48953;53.110;5.592;2022-10-30T08:26:51;19.10;;;11.07;;
62861;SDS011;48953;53.110;5.592;2022-10-30T08:29:17;16.33;;;10.35;;
62861;SDS011;48953;53.110;5.592;2022-10-30T08:31:43;16.77;;;11.25;;
62861;SDS011;48953;53.110;5.592;2022-10-30T08:34:11;17.08;;;11.90;;
62861;SDS011;48953;53.110;5.592;2022-10-30T08:36:37;17.67;;;10.55;;
62861;SDS011;48953;53.110;5.592;2022-10-30T08:39:02;14.88;;;11.02;;
62861;SDS011;48953;53.110;5.592;2022-10-30T08:41:28;16.60;;;10.75;;
62861;SDS011;48953;53.110;5.592;2022-10-30T08:43:54;15.02;;;10.20;;
62861;SDS011;48953;53.110;5.592;2022-10-30T08:46:19;18.83;;;10.60;;
62861;SDS011;48953;53.110;5.592;2022-10-30T08:48:45;18.70;;;10.57;;
62861;SDS011;48953;53.110;5.592;2022-10-30T08:51:11;18.42;;;10.70;;
62861;SDS011;48953;53.110;5.592;2022-10-30T08:53:36;20.63;;;10.38;;
62861;SDS011;48953;53.110;5.592;2022-10-30T08:56:02;19.17;;;11.98;;
62861;SDS011;48953;53.110;5.592;2022-10-30T08:58:29;18.02;;;11.35;;
62861;SDS011;48953;53.110;5.592;2022-10-30T09:00:55;16.25;;;10.60;;
62861;SDS011;48953;53.110;5.592;2022-10-30T09:03:20;19.70;;;10.88;;
62861;SDS011;48953;53.110;5.592;2022-10-30T09:05:46;23.60;;;10.98;;
62861;SDS011;48953;53.110;5.592;2022-10-30T09:08:12;20.27;;;11.23;;
62861;SDS011;48953;53.110;5.592;2022-10-30T09:10:37;19.55;;;11.05;;
62861;SDS011;48953;53.110;5.592;2022-10-30T09:13:03;20.33;;;11.35;;
62861;SDS011;48953;53.110;5.592;2022-10-30T09:15:29;21.23;;;11.55;;
62861;SDS011;48953;53.110;5.592;2022-10-30T09:17:55;22.30;;;11.55;;
62861;SDS011;48953;53.110;5.592;2022-10-30T09:20:25;19.27;;;11.48;;
62861;SDS011;48953;53.110;5.592;2022-10-30T09:22:51;20.30;;;11.52;;
62861;SDS011;48953;53.110;5.592;2022-10-30T09:25:17;22.27;;;12.20;;
62861;SDS011;48953;53.110;5.592;2022-10-30T09:27:43;23.73;;;12.38;;
62861;SDS011;48953;53.110;5.592;2022-10-30T09:30:08;22.88;;;13.05;;
62861;SDS011;48953;53.110;5.592;2022-10-30T09:32:34;21.50;;;12.18;;
62861;SDS011;48953;53.110;5.592;2022-10-30T09:35:00;19.27;;;11.65;;
62861;SDS011;48953;53.110;5.592;2022-10-30T09:37:26;25.60;;;12.20;;
62861;SDS011;48953;53.110;5.592;2022-10-30T09:39:51;23.77;;;12.88;;
62861;SDS011;48953;53.110;5.592;2022-10-30T09:45:22;24.38;;;13.05;;
62861;SDS011;48953;53.110;5.592;2022-10-30T09:50:50;24.90;;;12.80;;
62861;SDS011;48953;53.110;5.592;2022-10-30T09:56:11;20.73;;;12.25;;
62861;SDS011;48953;53.110;5.592;2022-10-30T09:58:48;23.38;;;13.18;;
62861;SDS011;48953;53.110;5.592;2022-10-30T10:01:27;23.67;;;12.80;;
62861;SDS011;48953;53.110;5.592;2022-10-30T10:06:56;21.10;;;12.57;;
62861;SDS011;48953;53.110;5.592;2022-10-30T10:09:27;20.25;;;12.15;;
62861;SDS011;48953;53.110;5.592;2022-10-30T10:14:40;17.75;;;12.13;;
62861;SDS011;48953;53.110;5.592;2022-10-30T10:17:11;23.50;;;12.82;;
62861;SDS011;48953;53.110;5.592;2022-10-30T10:19:43;26.90;;;12.40;;
62861;SDS011;48953;53.110;5.592;2022-10-30T10:25:15;21.48;;;12.88;;
62861;SDS011;48953;53.110;5.592;2022-10-30T10:30:22;22.90;;;13.18;;
62861;SDS011;48953;53.110;5.592;2022-10-30T10:33:01;20.38;;;11.93;;
62861;SDS011;48953;53.110;5.592;2022-10-30T10:46:33;23.80;;;12.32;;
62861;SDS011;48953;53.110;5.592;2022-10-30T10:52:32;23.92;;;12.23;;
62861;SDS011;48953;53.110;5.592;2022-10-30T10:55:13;20.85;;;12.30;;
62861;SDS011;48953;53.110;5.592;2022-10-30T10:57:42;19.63;;;12.48;;
62861;SDS011;48953;53.110;5.592;2022-10-30T11:00:16;18.67;;;11.57;;
62861;SDS011;48953;53.110;5.592;2022-10-30T11:02:50;25.38;;;12.52;;
62861;SDS011;48953;53.110;5.592;2022-10-30T11:07:55;20.13;;;12.10;;
62861;SDS011;48953;53.110;5.592;2022-10-30T11:10:25;25.83;;;11.93;;
62861;SDS011;48953;53.110;5.592;2022-10-30T11:12:50;19.98;;;11.15;;
62861;SDS011;48953;53.110;5.592;2022-10-30T11:15:25;17.77;;;11.10;;
62861;SDS011;48953;53.110;5.592;2022-10-30T11:18:13;19.35;;;10.45;;
62861;SDS011;48953;53.110;5.592;2022-10-30T11:23:44;26.23;;;10.98;;
62861;SDS011;48953;53.110;5.592;2022-10-30T11:33:47;21.00;;;11.05;;
62861;SDS011;48953;53.110;5.592;2022-10-30T11:36:14;19.45;;;10.52;;
62861;SDS011;48953;53.110;5.592;2022-10-30T11:38:41;19.13;;;10.27;;
62861;SDS011;48953;53.110;5.592;2022-10-30T11:41:07;19.38;;;10.52;;
62861;SDS011;48953;53.110;5.592;2022-10-30T11:43:34;18.17;;;10.35;;
62861;SDS011;48953;53.110;5.592;2022-10-30T11:46:02;18.05;;;10.35;;
62861;SDS011;48953;53.110;5.592;2022-10-30T11:48:33;18.75;;;10.25;;
62861;SDS011;48953;53.110;5.592;2022-10-30T11:51:01;20.27;;;10.35;;
62861;SDS011;48953;53.110;5.592;2022-10-30T11:56:14;18.35;;;10.02;;
62861;SDS011;48953;53.110;5.592;2022-10-30T11:58:45;20.27;;;9.55;;
62861;SDS011;48953;53.110;5.592;2022-10-30T12:01:18;19.55;;;10.07;;
62861;SDS011;48953;53.110;5.592;2022-10-30T12:03:48;18.75;;;9.05;;
62861;SDS011;48953;53.110;5.592;2022-10-30T12:06:16;18.58;;;9.38;;
62861;SDS011;48953;53.110;5.592;2022-10-30T12:11:46;18.48;;;8.82;;
62861;SDS011;48953;53.110;5.592;2022-10-30T12:14:19;18.58;;;8.85;;
62861;SDS011;48953;53.110;5.592;2022-10-30T12:16:46;16.38;;;8.02;;
62861;SDS011;48953;53.110;5.592;2022-10-30T12:19:15;17.23;;;8.13;;
62861;SDS011;48953;53.110;5.592;2022-10-30T12:21:47;16.77;;;8.10;;
62861;SDS011;48953;53.110;5.592;2022-10-30T12:24:30;15.98;;;8.15;;
62861;SDS011;48953;53.110;5.592;2022-10-30T12:27:00;14.07;;;8.43;;
62861;SDS011;48953;53.110;5.592;2022-10-30T12:30:14;14.05;;;7.75;;
62861;SDS011;48953;53.110;5.592;2022-10-30T12:32:19;16.48;;;8.23;;
62861;SDS011;48953;53.110;5.592;2022-10-30T12:34:52;14.77;;;8.35;;
62861;SDS011;48953;53.110;5.592;2022-10-30T12:37:33;17.02;;;8.27;;
62861;SDS011;48953;53.110;5.592;2022-10-30T12:42:47;13.55;;;7.85;;
62861;SDS011;48953;53.110;5.592;2022-10-30T12:45:23;13.80;;;8.35;;
62861;SDS011;48953;53.110;5.592;2022-10-30T12:47:56;19.88;;;8.50;;
62861;SDS011;48953;53.110;5.592;2022-10-30T12:53:45;17.85;;;8.30;;
62861;SDS011;48953;53.110;5.592;2022-10-30T12:56:11;14.07;;;7.82;;
62861;SDS011;48953;53.110;5.592;2022-10-30T13:01:49;14.93;;;8.77;;
62861;SDS011;48953;53.110;5.592;2022-10-30T13:04:27;19.60;;;8.55;;
62861;SDS011;48953;53.110;5.592;2022-10-30T13:07:11;15.25;;;9.20;;
62861;SDS011;48953;53.110;5.592;2022-10-30T13:12:29;18.60;;;9.48;;
62861;SDS011;48953;53.110;5.592;2022-10-30T13:17:34;14.38;;;8.85;;
62861;SDS011;48953;53.110;5.592;2022-10-30T13:19:59;16.50;;;8.45;;
62861;SDS011;48953;53.110;5.592;2022-10-30T13:22:30;22.60;;;9.93;;
62861;SDS011;48953;53.110;5.592;2022-10-30T13:25:11;19.52;;;10.40;;
62861;SDS011;48953;53.110;5.592;2022-10-30T13:27:54;19.40;;;10.75;;
62861;SDS011;48953;53.110;5.592;2022-10-30T13:30:54;16.85;;;10.38;;
62861;SDS011;48953;53.110;5.592;2022-10-30T13:33:46;20.15;;;11.00;;
62861;SDS011;48953;53.110;5.592;2022-10-30T13:36:41;20.08;;;11.35;;
62861;SDS011;48953;53.110;5.592;2022-10-30T13:45:00;17.67;;;11.02;;
62861;SDS011;48953;53.110;5.592;2022-10-30T13:47:35;21.55;;;11.88;;
62861;SDS011;48953;53.110;5.592;2022-10-30T13:52:48;24.10;;;11.50;;
62861;SDS011;48953;53.110;5.592;2022-10-30T13:55:20;20.10;;;11.27;;
62861;SDS011;48953;53.110;5.592;2022-10-30T13:57:58;21.83;;;11.45;;
62861;SDS011;48953;53.110;5.592;2022-10-30T14:03:41;24.83;;;11.90;;
62861;SDS011;48953;53.110;5.592;2022-10-30T14:11:15;19.15;;;11.50;;
62861;SDS011;48953;53.110;5.592;2022-10-30T14:21:39;22.15;;;12.07;;
62861;SDS011;48953;53.110;5.592;2022-10-30T14:24:19;21.30;;;12.10;;
62861;SDS011;48953;53.110;5.592;2022-10-30T14:26:51;21.73;;;12.32;;
62861;SDS011;48953;53.110;5.592;2022-10-30T14:32:01;17.13;;;11.93;;
62861;SDS011;48953;53.110;5.592;2022-10-30T14:37:10;23.80;;;12.30;;
62861;SDS011;48953;53.110;5.592;2022-10-30T14:39:43;21.52;;;11.52;;
62861;SDS011;48953;53.110;5.592;2022-10-30T14:42:27;28.88;;;11.85;;
62861;SDS011;48953;53.110;5.592;2022-10-30T14:58:25;28.23;;;14.55;;
62861;SDS011;48953;53.110;5.592;2022-10-30T15:06:03;24.65;;;12.57;;
62861;SDS011;48953;53.110;5.592;2022-10-30T15:08:47;24.05;;;13.27;;
62861;SDS011;48953;53.110;5.592;2022-10-30T15:14:24;20.77;;;12.13;;
62861;SDS011;48953;53.110;5.592;2022-10-30T15:16:58;24.20;;;13.00;;
62861;SDS011;48953;53.110;5.592;2022-10-30T15:19:23;30.55;;;13.60;;
62861;SDS011;48953;53.110;5.592;2022-10-30T15:21:53;25.98;;;15.02;;
62861;SDS011;48953;53.110;5.592;2022-10-30T15:24:23;23.48;;;13.95;;
62861;SDS011;48953;53.110;5.592;2022-10-30T15:26:52;20.33;;;14.00;;
62861;SDS011;48953;53.110;5.592;2022-10-30T15:29:25;23.73;;;14.45;;
62861;SDS011;48953;53.110;5.592;2022-10-30T15:32:01;22.95;;;13.23;;
62861;SDS011;48953;53.110;5.592;2022-10-30T15:34:50;21.98;;;13.18;;
62861;SDS011;48953;53.110;5.592;2022-10-30T15:37:24;21.80;;;13.07;;
62861;SDS011;48953;53.110;5.592;2022-10-30T15:42:49;25.58;;;13.80;;
62861;SDS011;48953;53.110;5.592;2022-10-30T15:45:17;24.75;;;13.55;;
62861;SDS011;48953;53.110;5.592;2022-10-30T15:50:42;23.02;;;14.30;;
62861;SDS011;48953;53.110;5.592;2022-10-30T15:53:19;26.60;;;12.82;;
62861;SDS011;48953;53.110;5.592;2022-10-30T15:55:48;25.02;;;14.20;;
62861;SDS011;48953;53.110;5.592;2022-10-30T15:58:16;29.25;;;14.32;;
62861;SDS011;48953;53.110;5.592;2022-10-30T16:00:58;22.38;;;13.75;;
62861;SDS011;48953;53.110;5.592;2022-10-30T16:03:26;23.08;;;13.93;;
62861;SDS011;48953;53.110;5.592;2022-10-30T16:08:43;26.77;;;15.47;;
62861;SDS011;48953;53.110;5.592;2022-10-30T16:11:11;23.02;;;15.25;;
62861;SDS011;48953;53.110;5.592;2022-10-30T16:13:38;34.80;;;22.00;;
62861;SDS011;48953;53.110;5.592;2022-10-30T16:16:05;31.10;;;17.55;;
62861;SDS011;48953;53.110;5.592;2022-10-30T16:18:35;31.73;;;18.52;;
62861;SDS011;48953;53.110;5.592;2022-10-30T16:21:04;27.90;;;17.10;;
62861;SDS011;48953;53.110;5.592;2022-10-30T16:23:39;27.13;;;17.77;;
62861;SDS011;48953;53.110;5.592;2022-10-30T16:26:55;28.95;;;16.92;;
62861;SDS011;48953;53.110;5.592;2022-10-30T16:31:42;33.65;;;17.90;;
62861;SDS011;48953;53.110;5.592;2022-10-30T16:34:17;33.90;;;19.42;;
62861;SDS011;48953;53.110;5.592;2022-10-30T16:36:45;34.60;;;19.60;;
62861;SDS011;48953;53.110;5.592;2022-10-30T16:39:12;29.05;;;19.15;;
62861;SDS011;48953;53.110;5.592;2022-10-30T16:41:40;33.85;;;20.98;;
62861;SDS011;48953;53.110;5.592;2022-10-30T16:49:40;31.85;;;20.38;;
62861;SDS011;48953;53.110;5.592;2022-10-30T16:52:12;34.30;;;19.90;;
62861;SDS011;48953;53.110;5.592;2022-10-30T16:54:39;31.92;;;20.52;;
62861;SDS011;48953;53.110;5.592;2022-10-30T16:57:15;31.10;;;19.20;;
62861;SDS011;48953;53.110;5.592;2022-10-30T16:59:48;28.02;;;18.13;;
62861;SDS011;48953;53.110;5.592;2022-10-30T17:02:16;33.85;;;19.83;;
62861;SDS011;48953;53.110;5.592;2022-10-30T17:04:45;35.00;;;20.20;;
62861;SDS011;48953;53.110;5.592;2022-10-30T17:07:17;29.02;;;18.63;;
62861;SDS011;48953;53.110;5.592;2022-10-30T17:09:46;34.67;;;20.10;;
62861;SDS011;48953;53.110;5.592;2022-10-30T17:14:46;31.48;;;20.15;;